Historique des stations

Station météo de Chassignolles

Altitude de la station : 290 m







Données météorologiques pour le 26/09/2022
Date
Heure
Températures Humidité Point de rosée Vitesse
du vent
Direction Rafales Windchill Pression Pluviométrie
Cumul
Date
Heure
Températures Humidité Point de rosée Vitesse
du vent
Direction Rafales Windchill Pression Pluviométrie
Cumul
26/09/2022 05:158.4 °C96 %7.8 °C6 km/hSSO10 km/h7.2 1014 hPa-
26/09/2022 05:148.4 °C96 %7.8 °C3 km/hSO10 km/h7.8 1014 hPa-
26/09/2022 05:008.4 °C96 %7.8 °C3 km/hS10 km/h7.8 1014 hPa-
26/09/2022 04:598.4 °C96 %7.8 °C6 km/hSO10 km/h7.2 1014 hPa-
26/09/2022 04:457.3 °C96 %6.7 °C2 km/hSSO6 km/h7.2 1014 hPa-
26/09/2022 04:447.2 °C96 %6.7 °C3 km/hSSO6 km/h6.7 1014 hPa-
26/09/2022 04:316.6 °C95 %6.1 °C-S3 km/h6.7 1014 hPa-
26/09/2022 04:296.6 °C95 %6.1 °C2 km/hS6 km/h6.7 1014 hPa-
26/09/2022 04:166.6 °C95 %6.1 °C2 km/hS3 km/h6.7 1014 hPa-
26/09/2022 04:146.6 °C95 %6.1 °C-S6 km/h6.7 1014 hPa-
26/09/2022 04:016.3 °C95 %5.6 °C-S3 km/h6.1 1014 hPa-
26/09/2022 03:596.3 °C95 %5.6 °C2 km/hS6 km/h6.1 1014 hPa-
26/09/2022 03:466.4 °C95 %5.6 °C2 km/hSO3 km/h6.7 1015 hPa-
26/09/2022 03:446.4 °C95 %5.6 °C2 km/hSO6 km/h6.7 1015 hPa-
26/09/2022 03:316.6 °C95 %6.1 °C-SO2 km/h6.7 1015 hPa-
26/09/2022 03:296.6 °C95 %6.1 °C-SO6 km/h6.7 1015 hPa-
26/09/2022 03:166.8 °C95 %6.1 °C-SO3 km/h6.7 1015 hPa-
26/09/2022 03:146.8 °C95 %6.1 °C-SO6 km/h6.7 1015 hPa-
26/09/2022 03:016.7 °C94 %6.1 °C-OSO2 km/h6.7 1015 hPa-
26/09/2022 02:596.7 °C94 %6.1 °C-SSE6 km/h6.7 1015 hPa-
26/09/2022 02:468.0 °C96 %7.2 °C2 km/hSSO5 km/h7.8 1015 hPa-
26/09/2022 02:448.0 °C96 %7.2 °C2 km/hSSO6 km/h7.8 1015 hPa-
26/09/2022 02:317.2 °C95 %6.7 °C3 km/hSSO3 km/h6.7 1015 hPa-
26/09/2022 02:297.1 °C95 %6.7 °C2 km/hSSO6 km/h7.2 1016 hPa-
26/09/2022 02:167.3 °C95 %6.7 °C-SSO2 km/h7.2 1016 hPa-
26/09/2022 02:147.3 °C95 %6.7 °C-SSO6 km/h7.2 1016 hPa-
26/09/2022 02:017.6 °C95 %6.7 °C-SSO2 km/h7.8 1016 hPa-
26/09/2022 02:007.6 °C95 %6.7 °C-SSO6 km/h7.8 1016 hPa-
26/09/2022 01:467.7 °C94 %6.7 °C-SSO2 km/h7.8 1016 hPa-
26/09/2022 01:447.7 °C94 %6.7 °C-SSO6 km/h7.8 1016 hPa-
26/09/2022 01:318.0 °C94 %7.2 °C-SSO2 km/h7.8 1016 hPa-
26/09/2022 01:308.1 °C94 %7.2 °C2 km/hSSO6 km/h8.3 1016 hPa-
26/09/2022 01:168.7 °C94 %7.8 °C-SSO5 km/h8.9 1016 hPa-
26/09/2022 01:158.8 °C94 %7.8 °C-SSO6 km/h8.9 1016 hPa-
26/09/2022 01:019.2 °C96 %8.9 °C3 km/hSSO6 km/h8.9 1016 hPa-
26/09/2022 01:009.2 °C96 %8.9 °C5 km/hSSO6 km/h8.9 1016 hPa-
26/09/2022 00:468.3 °C95 %7.8 °C3 km/hSSO5 km/h7.8 1016 hPa-
26/09/2022 00:458.3 °C95 %7.8 °C3 km/hSSO6 km/h7.8 1016 hPa-
26/09/2022 00:318.3 °C95 %7.8 °C2 km/hSSE5 km/h8.3 1016 hPa-
26/09/2022 00:308.3 °C95 %7.8 °C2 km/hS6 km/h8.3 1016 hPa-
26/09/2022 00:169.1 °C94 %8.3 °C2 km/hS5 km/h8.9 1016 hPa-
26/09/2022 00:159.2 °C95 %8.3 °C2 km/hS6 km/h9.4 1016 hPa-
26/09/2022 00:028.9 °C96 %8.3 °C2 km/hSO5 km/h8.9 1016 hPa-
26/09/2022 00:008.8 °C96 %8.3 °C2 km/hSSO2 km/h8.9 1016 hPa-


Minima :

Température : 6.3 °C
Humidité : 94 %
Point de rosée : 5.6 °C
Vent moyen : 2 km/h
Windchill : 6.1
Pression atm. : 1014 hPa
Maxima :

Température : 9.2 °C
Humidité : 96 %
Point de rosée : 8.9 °C
Vent moyen : 6 km/h
Windchill : 9.4
Pression atm. : 1016 hPa
Rafales max : 10 km/h
Cumul de pluie sur 24H : 0 mm

Chassignolles est une commune du département Indre (36).
La station météorologique du réseau de l'association la plus proche de Chassignolles est celle de Beddes



Icône Facebook Association Météo Centre Icône Twitter Association Météo Centre Icône Chaîne Youtube Association Météo Centre Icône contact Association Météo Centre Icône Insta Association Météo Centre